Padenville, Mississippi
Current Conditions -  °F | °C
As of 8:53 AM on Sunday 21 Dec 2014 (Local Time) from KTUP Reporting Station
Clear Clear  
Wind Chill: 32°   Ceiling: Unl
Heat Index: 37°   Visibility: 10mi
Dew Point: 32°   Wind: 7mph
Humidity: 82%   Direction: 30°NNE
Pressure: 30.2"   Gusts: NA
Location:  34.1973°N, 88.6082°W
Report Text: KTUP 211453Z 03006KT 10SM CLR 03/00 A3020 RMK AO2 SLP227 T00280000 55001
Loading
Personal Weather Stations






























Interactive Weather Map New forecast layout! Learn more

10-Day Weather Forecast

Advertisements
Track Severe Weather on mobile